Terminal Aerodrome Forecast
Issued by NWS

Home | Current Version | Previous Version | Text Only | Print | Product List | Glossary Off
Versions: 1 2 3 4 5 6 7 8 9 10 11 12 13 14

000
FTUS43 KOAX 212300
TAFCDR
TAF
KCDR 212321Z 2200/2224 17014KT P6SM VCSH BKN080
     FM220400 24008KT P6SM BKN080
     FM221500 29014G24KT P6SM SCT080=

USA.gov is the U.S. government's official web portal to all federal, state and local government web resources and services.